Time;durP1;ratioP1;P1;durP2;ratioP2;P2;SDS_P1;SDS_P2;PMS_P1;PMS_P2;Temp;Humidity;BMP_temperature;BMP_pressure;BME280_temperature;BME280_humidity;BME280_pressure;Samples;Min_cycle;Max_cycle;Signal;HPM_P1;HPM_P2
2022/09/13 00:02:04;;;;;;;;;;;;;;;15.86;76.77;100651.53;5007341;28;19922;-69
2022/09/13 00:04:30;;;;;;;;;;;;;;;15.75;77.35;100656.78;5007625;28;19967;-69
2022/09/13 00:06:56;;;;;;;;;;;;;;;15.75;77.22;100638.28;5003896;28;19965;-69
2022/09/13 00:09:23;;;;;;;;;;;;;;;15.31;80.00;100646.81;4993601;28;19921;-69
2022/09/13 00:11:49;;;;;;;;;;;;;;;15.47;78.47;100634.16;5005982;28;19933;-69
2022/09/13 00:14:15;;;;;;;;;;;;;;;15.68;77.16;100626.47;5006252;28;19925;-68
2022/09/13 00:16:43;;;;;;;;;;;;;;;15.85;77.25;100614.66;5006050;28;20003;-68
2022/09/13 00:19:09;;;;;;;;;;;;;;;16.01;76.69;100613.34;5006903;28;19956;-68
2022/09/13 00:21:35;;;;;;;;;;;;;;;15.55;78.11;100615.13;5007622;28;19949;-68
2022/09/13 00:24:02;;;;;;;;;;;;;;;15.81;77.66;100619.31;5007004;28;19956;-69
2022/09/13 00:26:28;;;;;;;;;;;;;;;16.11;75.77;100620.59;5007064;28;20019;-69
2022/09/13 00:28:56;;;;;;;;;;;;;;;16.12;75.22;100612.53;5006832;28;19956;-69
2022/09/13 00:31:24;;;;;;;;;;;;;;;16.26;74.14;100608.84;5005741;28;19960;-69
2022/09/13 00:33:51;;;;;;;;;;;;;;;16.05;75.32;100600.72;5007137;28;19921;-69
2022/09/13 00:36:17;;;;;;;;;;;;;;;16.02;75.13;100612.41;5007431;28;19960;-69
2022/09/13 00:38:44;;;;;;;;;;;;;;;16.47;73.89;100610.66;5005683;28;20384;-68
2022/09/13 00:41:12;;;;;;;;;;;;;;;16.06;75.31;100615.66;5005042;28;20524;-69
2022/09/13 00:43:44;;;;;;;;;;;;;;;15.95;75.87;100611.19;5007958;28;19972;-68
2022/09/13 00:46:11;;;;;;;;;;;;;;;15.91;75.58;100601.78;5006305;28;20386;-68
2022/09/13 00:48:37;;;;;;;;;;;;;;;15.97;75.39;100596.03;5006278;28;19982;-68
2022/09/13 00:51:07;;;;;;;;;;;;;;;15.70;76.52;100600.78;5007594;28;19960;-69
2022/09/13 00:53:35;;;;;;;;;;;;;;;15.63;77.11;100591.59;4995776;28;20460;-69
2022/09/13 00:56:02;;;;;;;;;;;;;;;15.40;77.15;100597.75;4986676;28;19963;-69
2022/09/13 00:58:32;;;;;;;;;;;;;;;15.36;77.16;100597.13;4993934;28;20431;-69
2022/09/13 01:00:59;;;;;;;;;;;;;;;15.37;77.60;100595.31;5005615;28;19965;-69
2022/09/13 01:03:27;;;;;;;;;;;;;;;15.37;78.06;100601.44;5000408;28;19929;-69
2022/09/13 01:05:55;;;;;;;;;;;;;;;14.96;79.54;100600.97;4996415;28;19953;-69
2022/09/13 01:08:22;;;;;;;;;;;;;;;15.09;79.04;100602.63;4987621;28;20004;-69
2022/09/13 01:10:50;;;;;;;;;;;;;;;15.49;77.69;100590.00;5008709;28;19971;-68
2022/09/13 01:13:18;;;;;;;;;;;;;;;15.30;78.01;100589.63;5004700;28;19999;-69
2022/09/13 01:15:44;;;;;;;;;;;;;;;14.84;80.58;100594.78;5006412;28;19921;-69
2022/09/13 01:18:11;;;;;;;;;;;;;;;15.19;79.47;100592.22;5005214;28;20389;-69
2022/09/13 01:20:45;;;;;;;;;;;;;;;15.17;78.85;100577.44;5003867;28;19930;-69
2022/09/13 01:23:32;;;;;;;;;;;;;;;14.83;81.51;100571.13;5005046;28;20011;-68
2022/09/13 01:26:12;;;;;;;;;;;;;;;15.09;80.44;100560.38;4987676;28;20377;-68
2022/09/13 01:28:53;;;;;;;;;;;;;;;15.57;77.95;100555.91;5004872;28;19971;-68
2022/09/13 01:31:24;;;;;;;;;;;;;;;15.50;77.50;100553.84;5004625;28;19921;-69
2022/09/13 01:33:54;;;;;;;;;;;;;;;15.47;77.52;100556.69;5005623;28;19948;-69
2022/09/13 01:36:33;;;;;;;;;;;;;;;15.29;79.02;100550.13;5004241;28;19967;-68
2022/09/13 01:39:03;;;;;;;;;;;;;;;15.30;79.17;100551.81;5003039;28;20000;-68
2022/09/13 01:41:39;;;;;;;;;;;;;;;15.65;77.25;100551.84;5002797;28;19926;-68
2022/09/13 01:44:12;;;;;;;;;;;;;;;15.50;77.36;100536.19;4987267;28;19957;-68
2022/09/13 01:46:45;;;;;;;;;;;;;;;15.07;79.65;100532.41;4986508;28;19976;-68
2022/09/13 01:49:16;;;;;;;;;;;;;;;15.11;80.01;100529.38;4986770;28;19944;-68
2022/09/13 01:51:45;;;;;;;;;;;;;;;15.18;79.22;100532.44;4991037;28;19929;-68
2022/09/13 01:54:15;;;;;;;;;;;;;;;15.32;79.44;100523.47;5000601;28;19945;-68
2022/09/13 01:56:45;;;;;;;;;;;;;;;15.65;77.07;100528.91;5005872;28;19925;-68
2022/09/13 01:59:14;;;;;;;;;;;;;;;15.42;78.65;100514.75;5004709;28;20699;-68
2022/09/13 02:01:44;;;;;;;;;;;;;;;15.45;78.77;100513.66;4992970;28;19929;-68
2022/09/13 02:04:12;;;;;;;;;;;;;;;15.71;77.54;100509.06;5004958;28;19971;-68
2022/09/13 02:06:44;;;;;;;;;;;;;;;15.51;78.52;100508.81;5004808;28;19921;-68
2022/09/13 02:09:11;;;;;;;;;;;;;;;15.46;78.51;100505.63;5009012;28;20328;-69
2022/09/13 02:11:39;;;;;;;;;;;;;;;15.35;79.38;100496.84;5009188;28;19979;-68
2022/09/13 02:14:07;;;;;;;;;;;;;;;15.03;80.66;100475.47;5005286;28;20600;-68
2022/09/13 02:16:35;;;;;;;;;;;;;;;14.86;81.96;100481.13;5009770;28;20018;-68
2022/09/13 02:19:06;;;;;;;;;;;;;;;15.02;81.48;100493.13;5009702;28;19960;-68
2022/09/13 02:21:38;;;;;;;;;;;;;;;14.90;81.62;100491.38;5007451;28;20266;-68
2022/09/13 02:24:06;;;;;;;;;;;;;;;14.86;81.78;100483.78;4999454;28;19929;-68
2022/09/13 02:26:34;;;;;;;;;;;;;;;15.07;81.45;100479.56;4991266;28;19940;-68
2022/09/13 02:29:03;;;;;;;;;;;;;;;14.90;81.79;100485.25;5005489;28;20384;-68
2022/09/13 02:31:32;;;;;;;;;;;;;;;14.83;82.36;100484.00;5003159;28;19925;-68
2022/09/13 02:34:00;;;;;;;;;;;;;;;15.16;80.42;100480.66;5005107;28;19928;-68
2022/09/13 02:36:30;;;;;;;;;;;;;;;15.52;78.52;100478.78;5000697;28;19928;-68
2022/09/13 02:38:59;;;;;;;;;;;;;;;15.38;79.56;100475.47;4979316;28;19964;-68
2022/09/13 02:41:30;;;;;;;;;;;;;;;15.23;80.24;100460.75;4992927;28;20027;-68
2022/09/13 02:43:58;;;;;;;;;;;;;;;14.97;81.30;100457.44;4999195;28;19925;-68
2022/09/13 02:46:38;;;;;;;;;;;;;;;15.15;81.09;100453.41;5008747;28;20006;-68
2022/09/13 02:49:10;;;;;;;;;;;;;;;15.34;79.55;100451.06;4989471;28;19926;-68
2022/09/13 02:51:42;;;;;;;;;;;;;;;15.74;77.72;100459.47;4992466;28;19952;-68
2022/09/13 02:54:15;;;;;;;;;;;;;;;15.89;76.97;100452.16;5001819;28;19921;-68
2022/09/13 02:56:45;;;;;;;;;;;;;;;15.19;80.18;100449.59;4989726;28;20330;-68
2022/09/13 02:59:14;;;;;;;;;;;;;;;15.45;78.91;100453.75;5008209;28;19927;-68
2022/09/13 03:01:42;;;;;;;;;;;;;;;15.27;79.86;100451.66;4979743;28;19976;-68
2022/09/13 03:04:08;;;;;;;;;;;;;;;14.99;80.53;100458.19;4998021;28;19965;-68
2022/09/13 03:06:34;;;;;;;;;;;;;;;15.40;79.50;100452.41;4986174;28;19992;-68
2022/09/13 03:09:04;;;;;;;;;;;;;;;15.57;78.51;100454.63;5004711;28;19929;-68
2022/09/13 03:11:38;;;;;;;;;;;;;;;15.36;79.27;100453.63;4995310;28;19921;-68
2022/09/13 03:14:11;;;;;;;;;;;;;;;15.35;79.62;100452.75;5007046;28;19953;-68
2022/09/13 03:16:47;;;;;;;;;;;;;;;15.65;78.25;100452.25;5007842;28;20031;-66
2022/09/13 03:19:21;;;;;;;;;;;;;;;15.94;76.44;100452.63;5005737;28;19956;-66
2022/09/13 03:21:53;;;;;;;;;;;;;;;15.80;77.05;100444.94;5008714;28;19987;-66
2022/09/13 03:24:23;;;;;;;;;;;;;;;15.66;77.59;100445.16;5008242;28;19975;-66
2022/09/13 03:26:55;;;;;;;;;;;;;;;15.68;77.75;100443.25;5007122;28;19921;-66
2022/09/13 03:29:26;;;;;;;;;;;;;;;16.03;75.80;100433.41;5008712;28;19964;-66
2022/09/13 03:31:58;;;;;;;;;;;;;;;15.67;77.45;100437.09;5006672;28;19932;-66
2022/09/13 03:34:30;;;;;;;;;;;;;;;16.07;75.65;100427.72;5008169;28;20400;-66
2022/09/13 03:36:58;;;;;;;;;;;;;;;16.25;74.63;100422.81;4992482;28;19921;-66
2022/09/13 03:39:32;;;;;;;;;;;;;;;16.41;73.95;100425.88;5003973;28;20023;-66
2022/09/13 03:42:02;;;;;;;;;;;;;;;16.42;74.25;100430.22;5004239;28;19968;-66
2022/09/13 03:44:31;;;;;;;;;;;;;;;16.28;74.64;100419.06;4998249;28;19979;-66
2022/09/13 03:46:58;;;;;;;;;;;;;;;16.19;74.92;100425.91;5008679;28;19953;-66
2022/09/13 03:49:26;;;;;;;;;;;;;;;16.04;75.48;100427.13;5007909;28;19952;-66
2022/09/13 03:51:53;;;;;;;;;;;;;;;15.86;76.19;100428.59;4998152;28;19973;-66
2022/09/13 03:54:21;;;;;;;;;;;;;;;15.82;76.65;100432.44;4996562;28;19926;-66
2022/09/13 03:57:07;;;;;;;;;;;;;;;15.73;77.08;100423.44;5007427;28;19968;-66
2022/09/13 03:59:35;;;;;;;;;;;;;;;16.07;75.75;100421.63;5008038;28;19922;-66
2022/09/13 04:02:01;;;;;;;;;;;;;;;16.07;75.74;100424.28;5006869;28;20012;-66
2022/09/13 04:04:28;;;;;;;;;;;;;;;15.84;76.35;100423.44;4993020;28;19930;-66
2022/09/13 04:06:55;;;;;;;;;;;;;;;15.85;76.36;100422.44;5007553;28;19929;-66
2022/09/13 04:09:22;;;;;;;;;;;;;;;16.01;76.42;100427.38;5005634;28;20317;-66
2022/09/13 04:11:48;;;;;;;;;;;;;;;16.09;76.05;100419.69;4997533;28;19932;-66
2022/09/13 04:14:15;;;;;;;;;;;;;;;15.76;76.98;100415.25;5001432;28;19952;-66
2022/09/13 04:16:42;;;;;;;;;;;;;;;15.98;76.67;100424.97;4988920;28;20305;-66
2022/09/13 04:19:09;;;;;;;;;;;;;;;16.03;76.50;100425.47;4991742;28;19963;-66
2022/09/13 04:21:35;;;;;;;;;;;;;;;15.65;77.30;100427.63;5007594;28;19925;-66
2022/09/13 04:24:01;;;;;;;;;;;;;;;15.79;77.06;100419.44;5006659;28;19925;-67
2022/09/13 04:26:28;;;;;;;;;;;;;;;15.97;76.56;100425.94;4996988;28;19961;-67
2022/09/13 04:28:54;;;;;;;;;;;;;;;15.92;76.60;100430.78;5000035;28;19952;-67
2022/09/13 04:31:20;;;;;;;;;;;;;;;15.45;78.40;100418.53;5005852;28;20006;-67
2022/09/13 04:33:49;;;;;;;;;;;;;;;15.98;76.93;100423.19;4993517;28;19921;-67
2022/09/13 04:36:15;;;;;;;;;;;;;;;15.67;78.03;100423.06;4988114;28;19922;-67
2022/09/13 04:38:41;;;;;;;;;;;;;;;16.26;75.96;100421.00;5001150;28;19927;-68
2022/09/13 04:41:08;;;;;;;;;;;;;;;16.19;76.10;100423.28;5004463;28;20428;-66
2022/09/13 04:43:34;;;;;;;;;;;;;;;16.37;75.37;100423.63;5006719;28;19955;-64
2022/09/13 04:46:00;;;;;;;;;;;;;;;16.85;74.47;100434.69;5001029;28;19922;-63
2022/09/13 04:48:27;;;;;;;;;;;;;;;16.88;74.40;100434.44;5003608;28;20312;-63
2022/09/13 04:51:00;;;;;;;;;;;;;;;17.02;74.06;100456.16;5006002;28;19934;-64
2022/09/13 04:53:26;;;;;;;;;;;;;;;17.04;74.29;100451.56;4997445;28;19995;-63
2022/09/13 04:55:52;;;;;;;;;;;;;;;17.22;73.77;100470.38;5001098;28;20349;-63
2022/09/13 04:58:20;;;;;;;;;;;;;;;17.08;74.79;100465.41;5006999;28;20393;-63
2022/09/13 05:00:47;;;;;;;;;;;;;;;16.90;75.21;100478.38;5002936;28;20010;-63
2022/09/13 05:03:14;;;;;;;;;;;;;;;16.97;75.95;100481.34;4985089;28;19925;-63
2022/09/13 05:05:40;;;;;;;;;;;;;;;16.93;76.43;100485.19;4996491;28;20377;-63
2022/09/13 05:08:07;;;;;;;;;;;;;;;17.23;74.68;100474.72;4992887;28;19968;-62
2022/09/13 05:10:33;;;;;;;;;;;;;;;16.95;75.87;100459.44;4995332;28;19922;-62
2022/09/13 05:13:00;;;;;;;;;;;;;;;16.38;79.44;100457.88;5000876;28;19972;-62
2022/09/13 05:15:26;;;;;;;;;;;;;;;16.15;80.99;100464.16;5001636;28;20300;-62
2022/09/13 05:17:52;;;;;;;;;;;;;;;16.12;82.30;100464.41;4987383;28;19961;-62
2022/09/13 05:20:18;;;;;;;;;;;;;;;15.99;83.44;100453.97;4999354;28;19961;-62
2022/09/13 05:22:44;;;;;;;;;;;;;;;15.35;86.83;100455.41;5004088;28;19960;-63
2022/09/13 05:25:12;;;;;;;;;;;;;;;15.65;85.85;100451.41;5005940;28;19944;-63
2022/09/13 05:27:39;;;;;;;;;;;;;;;15.34;86.81;100432.59;5005550;28;19933;-63
2022/09/13 05:30:05;;;;;;;;;;;;;;;14.71;91.46;100442.69;4994092;28;19960;-63
2022/09/13 05:32:32;;;;;;;;;;;;;;;14.81;92.55;100449.81;4983471;28;19972;-63
2022/09/13 05:34:58;;;;;;;;;;;;;;;15.04;91.19;100446.31;5002808;28;20348;-63
2022/09/13 05:37:24;;;;;;;;;;;;;;;14.89;92.55;100430.78;4986528;28;20003;-63
2022/09/13 05:39:50;;;;;;;;;;;;;;;14.89;92.46;100414.94;4997507;28;20381;-63
2022/09/13 05:42:18;;;;;;;;;;;;;;;14.87;93.45;100412.41;4996400;28;19921;-63
2022/09/13 05:44:44;;;;;;;;;;;;;;;15.41;91.05;100411.84;4998994;28;19980;-63
2022/09/13 05:47:12;;;;;;;;;;;;;;;15.68;89.55;100422.09;5005279;28;19960;-63
2022/09/13 05:49:38;;;;;;;;;;;;;;;16.02;87.14;100444.94;4988976;28;19922;-64
2022/09/13 05:52:05;;;;;;;;;;;;;;;16.15;86.19;100452.75;4985701;28;20046;-64
2022/09/13 05:54:31;;;;;;;;;;;;;;;16.21;85.63;100445.16;4998477;28;19921;-64
2022/09/13 05:56:58;;;;;;;;;;;;;;;16.15;86.28;100428.97;5001694;28;19944;-64
2022/09/13 05:59:25;;;;;;;;;;;;;;;15.31;90.82;100422.25;4996497;28;19953;-64
2022/09/13 06:01:51;;;;;;;;;;;;;;;15.32;92.00;100425.75;5006323;28;19932;-65
2022/09/13 06:04:17;;;;;;;;;;;;;;;15.18;92.22;100418.88;4999768;28;19922;-66
2022/09/13 06:06:44;;;;;;;;;;;;;;;15.42;91.47;100414.34;4989890;28;19922;-66
2022/09/13 06:09:10;;;;;;;;;;;;;;;15.07;93.76;100411.78;5006736;28;19975;-66
2022/09/13 06:11:36;;;;;;;;;;;;;;;15.28;92.19;100404.00;4999135;28;19921;-66
2022/09/13 06:14:03;;;;;;;;;;;;;;;15.39;92.33;100396.09;4994428;28;20011;-67
2022/09/13 06:16:30;;;;;;;;;;;;;;;15.21;92.85;100388.75;5003665;28;19925;-66
2022/09/13 06:18:57;;;;;;;;;;;;;;;15.17;93.48;100388.13;5003671;28;20383;-66
2022/09/13 06:21:23;;;;;;;;;;;;;;;15.73;91.89;100396.16;5001645;28;19921;-66
2022/09/13 06:23:51;;;;;;;;;;;;;;;15.77;91.13;100389.66;5006426;28;19921;-66
2022/09/13 06:26:18;;;;;;;;;;;;;;;15.60;91.64;100385.69;4995499;28;19976;-67
2022/09/13 06:28:47;;;;;;;;;;;;;;;15.78;91.21;100389.53;4986969;28;20028;-67
2022/09/13 06:31:14;;;;;;;;;;;;;;;15.95;90.47;100388.22;4998323;28;19927;-67
2022/09/13 06:33:42;;;;;;;;;;;;;;;16.07;90.82;100380.13;5003495;28;19979;-67
2022/09/13 06:36:10;;;;;;;;;;;;;;;16.48;88.92;100382.06;5004797;28;19976;-68
2022/09/13 06:38:36;;;;;;;;;;;;;;;16.79;88.03;100376.94;5004125;28;19922;-68
2022/09/13 06:41:03;;;;;;;;;;;;;;;16.81;86.58;100378.50;5001692;28;19971;-68
2022/09/13 06:43:29;;;;;;;;;;;;;;;17.26;86.14;100371.13;5003370;28;19929;-68
2022/09/13 06:45:59;;;;;;;;;;;;;;;16.98;86.74;100375.28;4992797;28;19961;-68
2022/09/13 06:48:25;;;;;;;;;;;;;;;16.53;88.90;100371.97;4984140;28;20327;-68
2022/09/13 06:50:52;;;;;;;;;;;;;;;16.61;89.26;100370.50;4999616;28;19922;-68
2022/09/13 06:53:19;;;;;;;;;;;;;;;16.70;88.55;100360.03;5004955;28;20336;-68
2022/09/13 06:55:45;;;;;;;;;;;;;;;17.00;87.95;100369.84;5005429;28;19921;-68
2022/09/13 06:58:11;;;;;;;;;;;;;;;17.24;86.61;100366.94;4990600;28;19968;-68
2022/09/13 07:00:37;;;;;;;;;;;;;;;16.91;87.92;100365.31;5003827;28;19921;-68
2022/09/13 07:03:03;;;;;;;;;;;;;;;17.00;88.32;100377.78;5006755;28;20011;-68
2022/09/13 07:05:30;;;;;;;;;;;;;;;16.93;88.97;100377.47;5006557;28;19921;-68
2022/09/13 07:07:57;;;;;;;;;;;;;;;17.28;87.88;100385.09;5002388;28;19989;-68
2022/09/13 07:10:23;;;;;;;;;;;;;;;17.27;88.20;100380.75;5002503;28;19921;-68
2022/09/13 07:12:50;;;;;;;;;;;;;;;16.73;91.12;100374.81;5000502;28;20329;-68
2022/09/13 07:15:16;;;;;;;;;;;;;;;17.57;87.16;100373.84;5002149;28;19946;-68
2022/09/13 07:17:42;;;;;;;;;;;;;;;17.41;87.41;100374.28;4987801;28;19922;-68
2022/09/13 07:20:08;;;;;;;;;;;;;;;17.57;88.73;100376.47;5003503;28;20358;-68
2022/09/13 07:22:35;;;;;;;;;;;;;;;17.82;87.61;100368.06;4996723;28;19972;-68
2022/09/13 07:25:02;;;;;;;;;;;;;;;17.60;88.89;100373.56;4999341;28;19960;-68
2022/09/13 07:27:28;;;;;;;;;;;;;;;17.70;86.20;100377.13;5007625;28;19976;-68
2022/09/13 07:29:54;;;;;;;;;;;;;;;17.69;88.08;100378.09;5000422;28;20015;-68
2022/09/13 07:32:21;;;;;;;;;;;;;;;17.62;87.79;100380.44;4997041;28;20008;-68
2022/09/13 07:34:48;;;;;;;;;;;;;;;17.70;88.33;100387.72;4989038;28;19973;-69
2022/09/13 07:37:14;;;;;;;;;;;;;;;17.38;88.24;100385.97;4981387;28;19973;-69
2022/09/13 07:39:41;;;;;;;;;;;;;;;18.10;87.73;100380.59;4979704;28;19960;-69
2022/09/13 07:42:08;;;;;;;;;;;;;;;17.94;86.78;100388.22;4994433;28;19949;-69
2022/09/13 07:44:34;;;;;;;;;;;;;;;17.69;87.01;100381.56;5006366;28;19921;-69
2022/09/13 07:47:01;;;;;;;;;;;;;;;17.85;88.87;100381.91;4987583;28;20019;-69
2022/09/13 07:49:27;;;;;;;;;;;;;;;18.12;87.51;100383.09;4988899;28;20000;-69
2022/09/13 07:51:53;;;;;;;;;;;;;;;17.80;88.12;100393.91;4994569;28;20055;-69
2022/09/13 07:54:19;;;;;;;;;;;;;;;18.49;86.32;100392.97;4996780;28;19983;-67
2022/09/13 07:56:46;;;;;;;;;;;;;;;18.15;86.02;100375.72;4998138;28;20726;-67
2022/09/13 07:59:14;;;;;;;;;;;;;;;18.69;86.49;100377.06;4987235;28;19922;-66
2022/09/13 08:01:41;;;;;;;;;;;;;;;18.32;86.31;100372.41;4996064;28;19968;-66
2022/09/13 08:04:08;;;;;;;;;;;;;;;18.18;87.56;100378.09;4987458;28;20386;-66
2022/09/13 08:06:35;;;;;;;;;;;;;;;18.62;86.97;100368.00;4978832;28;19922;-67
2022/09/13 08:09:02;;;;;;;;;;;;;;;19.01;84.14;100390.06;4987825;28;19972;-66
2022/09/13 08:11:29;;;;;;;;;;;;;;;19.31;82.60;100385.41;4988919;28;20047;-66
2022/09/13 08:13:55;;;;;;;;;;;;;;;19.30;82.20;100386.38;5006667;28;19952;-66
2022/09/13 08:16:23;;;;;;;;;;;;;;;19.34;82.43;100397.56;5006657;28;20430;-67
2022/09/13 08:18:50;;;;;;;;;;;;;;;18.85;83.47;100388.81;5006834;28;19929;-67
2022/09/13 08:21:17;;;;;;;;;;;;;;;19.34;82.77;100382.44;4994069;28;20340;-67
2022/09/13 08:23:43;;;;;;;;;;;;;;;19.03;84.04;100396.91;4989383;28;19922;-67
2022/09/13 08:26:10;;;;;;;;;;;;;;;19.28;83.17;100396.31;4988557;28;19933;-67
2022/09/13 08:28:37;;;;;;;;;;;;;;;19.80;82.99;100391.44;4986056;28;19965;-67
2022/09/13 08:31:04;;;;;;;;;;;;;;;20.08;80.84;100389.59;4995693;28;19969;-67
2022/09/13 08:33:32;;;;;;;;;;;;;;;19.98;81.76;100389.66;5006939;28;19956;-67
2022/09/13 08:35:59;;;;;;;;;;;;;;;19.76;82.99;100396.22;5006285;28;20169;-67
2022/09/13 08:38:25;;;;;;;;;;;;;;;19.65;82.52;100396.38;5006984;28;19956;-67
2022/09/13 08:40:54;;;;;;;;;;;;;;;19.23;83.21;100397.72;4997914;28;19969;-68
2022/09/13 08:43:25;;;;;;;;;;;;;;;19.79;83.40;100397.72;5004814;28;20329;-68
2022/09/13 08:45:54;;;;;;;;;;;;;;;19.80;84.24;100394.09;5005054;28;19968;-69
2022/09/13 08:48:24;;;;;;;;;;;;;;;19.86;82.29;100383.69;4994639;28;19961;-68
2022/09/13 08:50:55;;;;;;;;;;;;;;;21.02;80.12;100377.59;5007360;28;20268;-68
2022/09/13 08:53:25;;;;;;;;;;;;;;;21.81;77.43;100371.09;5005081;28;20018;-68
2022/09/13 08:55:56;;;;;;;;;;;;;;;21.33;76.67;100371.66;5005574;28;20284;-70
2022/09/13 08:58:37;;;;;;;;;;;;;;;21.35;76.28;100358.19;5006919;28;19922;-70
2022/09/13 09:01:07;;;;;;;;;;;;;;;22.42;72.17;100378.03;5002142;28;19969;-68
2022/09/13 09:03:40;;;;;;;;;;;;;;;23.12;68.58;100371.25;5008626;28;20044;-68
2022/09/13 09:06:11;;;;;;;;;;;;;;;24.33;67.70;100371.88;5005874;28;19961;-68
2022/09/13 09:08:40;;;;;;;;;;;;;;;24.51;65.56;100373.28;5006742;28;19921;-68
2022/09/13 09:11:10;;;;;;;;;;;;;;;25.05;63.92;100370.56;5004795;28;19921;-68
2022/09/13 09:13:41;;;;;;;;;;;;;;;24.61;60.72;100371.19;5005939;28;19921;-68
2022/09/13 09:16:12;;;;;;;;;;;;;;;25.18;59.65;100371.59;4990673;28;20085;-68
2022/09/13 09:18:42;;;;;;;;;;;;;;;25.37;58.21;100372.91;4984824;28;19972;-68
2022/09/13 09:21:13;;;;;;;;;;;;;;;26.29;56.11;100365.31;5004065;28;20008;-68
2022/09/13 09:23:41;;;;;;;;;;;;;;;27.09;51.72;100366.75;5003331;28;20296;-67
2022/09/13 09:26:15;;;;;;;;;;;;;;;27.05;51.20;100372.72;5006297;28;19980;-68
2022/09/13 09:28:41;;;;;;;;;;;;;;;26.77;51.77;100364.56;4997174;28;19928;-67
2022/09/13 09:31:11;;;;;;;;;;;;;;;26.94;49.94;100368.69;5003032;28;20330;-67
2022/09/13 09:33:46;;;;;;;;;;;;;;;25.86;51.12;100362.50;5002345;28;20381;-67
2022/09/13 09:36:20;;;;;;;;;;;;;;;25.74;53.92;100371.19;5003623;28;19929;-68
2022/09/13 09:38:46;;;;;;;;;;;;;;;25.17;53.54;100377.13;5006190;28;19987;-68
2022/09/13 09:41:16;;;;;;;;;;;;;;;25.50;55.92;100367.72;5005928;28;19925;-68
2022/09/13 09:43:46;;;;;;;;;;;;;;;25.61;54.18;100379.88;4996310;28;19929;-68
2022/09/13 09:46:16;;;;;;;;;;;;;;;25.63;55.31;100378.72;5006189;28;19930;-68
2022/09/13 09:48:44;;;;;;;;;;;;;;;25.98;55.79;100379.78;5005865;28;19921;-68
2022/09/13 09:51:12;;;;;;;;;;;;;;;25.69;53.07;100390.53;5006255;28;19953;-68
2022/09/13 09:53:44;;;;;;;;;;;;;;;25.41;54.51;100392.16;5005906;28;19971;-68
2022/09/13 09:56:19;;;;;;;;;;;;;;;25.25;54.58;100397.69;4997464;28;19985;-68
2022/09/13 09:58:46;;;;;;;;;;;;;;;25.30;56.38;100387.25;4988241;28;19926;-69
2022/09/13 10:01:17;;;;;;;;;;;;;;;25.02;54.32;100382.47;5000819;28;20008;-69
2022/09/13 10:03:49;;;;;;;;;;;;;;;25.15;55.02;100384.53;4969048;28;19969;-68
2022/09/13 10:06:18;;;;;;;;;;;;;;;24.50;55.31;100385.00;4984683;28;19921;-68
2022/09/13 10:08:48;;;;;;;;;;;;;;;24.62;56.65;100385.44;5005250;28;19980;-68
2022/09/13 10:11:14;;;;;;;;;;;;;;;24.36;56.17;100376.88;5002017;28;19921;-68
2022/09/13 10:13:56;;;;;;;;;;;;;;;24.12;57.33;100377.84;5000084;28;20018;-68
2022/09/13 10:16:24;;;;;;;;;;;;;;;23.90;57.03;100374.09;5004081;28;19972;-67
2022/09/13 10:18:51;;;;;;;;;;;;;;;23.64;60.63;100368.16;5006350;28;19929;-65
2022/09/13 10:21:22;;;;;;;;;;;;;;;23.50;63.91;100369.69;5006265;28;19961;-65
2022/09/13 10:23:50;;;;;;;;;;;;;;;23.41;64.34;100367.16;5005352;28;19921;-65
2022/09/13 10:26:17;;;;;;;;;;;;;;;23.42;64.56;100368.88;5005062;28;19956;-65
2022/09/13 10:28:46;;;;;;;;;;;;;;;23.54;64.40;100362.16;5005558;28;19921;-65
2022/09/13 10:31:14;;;;;;;;;;;;;;;23.83;65.93;100361.56;5010059;28;19921;-65
2022/09/13 10:33:42;;;;;;;;;;;;;;;23.82;64.65;100376.78;5010276;28;19932;-66
2022/09/13 10:36:13;;;;;;;;;;;;;;;23.76;65.12;100383.66;5007402;28;19929;-66
2022/09/13 10:38:40;;;;;;;;;;;;;;;23.67;65.17;100381.19;5008240;28;19922;-66
2022/09/13 10:41:09;;;;;;;;;;;;;;;23.77;64.69;100374.63;5009413;28;20411;-67
2022/09/13 10:43:36;;;;;;;;;;;;;;;24.12;63.53;100373.31;5007579;28;19952;-67
2022/09/13 10:46:04;;;;;;;;;;;;;;;24.31;63.94;100365.88;5007694;28;19932;-67
2022/09/13 10:48:31;;;;;;;;;;;;;;;24.59;62.37;100350.94;5011195;28;19928;-67
2022/09/13 10:51:01;;;;;;;;;;;;;;;24.73;61.52;100353.69;5007686;28;19956;-68
2022/09/13 10:53:32;;;;;;;;;;;;;;;24.72;60.25;100359.22;5007412;28;19968;-68
2022/09/13 10:55:58;;;;;;;;;;;;;;;24.68;61.46;100357.94;5009766;28;19964;-68
2022/09/13 10:58:26;;;;;;;;;;;;;;;24.45;61.58;100367.78;5008050;28;19921;-68
2022/09/13 11:01:10;;;;;;;;;;;;;;;24.37;62.38;100373.19;5008027;28;19921;-69
2022/09/13 11:03:44;;;;;;;;;;;;;;;24.49;61.51;100361.91;5007635;28;20351;-69
2022/09/13 11:06:14;;;;;;;;;;;;;;;24.58;61.50;100368.03;5002747;28;19922;-68
2022/09/13 11:08:45;;;;;;;;;;;;;;;24.60;60.87;100360.66;4989477;28;19984;-69
2022/09/13 11:11:16;;;;;;;;;;;;;;;24.78;58.86;100360.34;5009058;28;19921;-69
2022/09/13 11:13:52;;;;;;;;;;;;;;;24.88;60.35;100352.91;5007255;28;19979;-69
2022/09/13 11:16:25;;;;;;;;;;;;;;;24.96;60.52;100350.16;5007581;28;19972;-70
2022/09/13 11:19:00;;;;;;;;;;;;;;;25.08;57.88;100352.25;5007530;28;20388;-70
2022/09/13 11:21:36;;;;;;;;;;;;;;;25.22;60.35;100347.91;5004899;28;20044;-69
2022/09/13 11:24:15;;;;;;;;;;;;;;;25.59;59.53;100341.66;5007333;28;20020;-69
2022/09/13 11:26:46;;;;;;;;;;;;;;;25.78;59.79;100343.78;5004984;28;20340;-69
2022/09/13 11:29:25;;;;;;;;;;;;;;;26.09;55.60;100340.84;5007637;28;19957;-69
2022/09/13 11:31:58;;;;;;;;;;;;;;;26.11;55.46;100355.78;5007111;28;19921;-68
2022/09/13 11:34:32;;;;;;;;;;;;;;;26.12;53.62;100360.16;5007309;28;19960;-69
2022/09/13 11:37:06;;;;;;;;;;;;;;;26.07;53.41;100357.19;5005552;28;20012;-68
2022/09/13 11:39:37;;;;;;;;;;;;;;;26.03;54.03;100350.50;4995135;28;19922;-68
2022/09/13 11:42:07;;;;;;;;;;;;;;;26.15;54.79;100349.00;4999829;28;19949;-68
2022/09/13 11:44:48;;;;;;;;;;;;;;;26.33;52.44;100345.09;5007635;28;19925;-68
2022/09/13 11:47:20;;;;;;;;;;;;;;;26.55;54.38;100346.78;5008263;28;20392;-68
2022/09/13 11:49:57;;;;;;;;;;;;;;;26.64;53.90;100337.56;5004524;28;19929;-69
2022/09/13 11:52:31;;;;;;;;;;;;;;;26.49;51.65;100347.56;4988078;28;20357;-69
2022/09/13 11:55:02;;;;;;;;;;;;;;;26.67;53.53;100342.56;4987162;28;19976;-69
2022/09/13 11:57:31;;;;;;;;;;;;;;;26.39;53.59;100333.56;4988983;28;19925;-69
2022/09/13 12:00:00;;;;;;;;;;;;;;;26.86;52.66;100333.88;4988030;28;19957;-68
2022/09/13 12:02:29;;;;;;;;;;;;;;;26.80;54.38;100339.13;4987892;28;19921;-68
2022/09/13 12:04:56;;;;;;;;;;;;;;;26.71;52.19;100330.38;4996858;28;19921;-69
2022/09/13 12:07:27;;;;;;;;;;;;;;;26.33;52.47;100329.81;5003231;28;19926;-69
2022/09/13 12:09:57;;;;;;;;;;;;;;;26.37;52.71;100335.63;5003075;28;20003;-69
2022/09/13 12:12:28;;;;;;;;;;;;;;;26.21;54.60;100327.78;5006128;28;19921;-69
2022/09/13 12:14:57;;;;;;;;;;;;;;;26.00;56.17;100328.56;5005807;28;19967;-68
2022/09/13 12:17:27;;;;;;;;;;;;;;;25.87;56.70;100329.22;5007631;28;19925;-68
2022/09/13 12:19:56;;;;;;;;;;;;;;;25.74;56.76;100334.44;5006969;28;19975;-68
2022/09/13 12:22:23;;;;;;;;;;;;;;;25.68;56.85;100322.56;5005211;28;19928;-69
2022/09/13 12:24:51;;;;;;;;;;;;;;;25.30;57.09;100323.69;5006822;28;20369;-68
2022/09/13 12:27:21;;;;;;;;;;;;;;;25.24;57.95;100315.53;5007379;28;20443;-69
2022/09/13 12:29:50;;;;;;;;;;;;;;;25.08;57.80;100317.38;5007666;28;19933;-68
2022/09/13 12:32:19;;;;;;;;;;;;;;;25.03;59.95;100314.38;5005998;28;20342;-68
2022/09/13 12:34:49;;;;;;;;;;;;;;;25.00;60.37;100319.28;5005360;28;19921;-68
2022/09/13 12:37:35;;;;;;;;;;;;;;;24.88;59.91;100315.38;5005784;28;19930;-69
2022/09/13 12:40:16;;;;;;;;;;;;;;;24.92;60.45;100319.34;5005293;28;19961;-68
2022/09/13 12:43:02;;;;;;;;;;;;;;;24.92;60.09;100325.56;5005832;28;20362;-68
2022/09/13 12:45:43;;;;;;;;;;;;;;;24.73;60.91;100309.94;5006023;28;19968;-68